Time;durP1;ratioP1;P1;durP2;ratioP2;P2;SDS_P1;SDS_P2;PMS_P1;PMS_P2;Temp;Humidity;BMP_temperature;BMP_pressure;BME280_temperature;BME280_humidity;BME280_pressure;Samples;Min_cycle;Max_cycle;Signal;HPM_P1;HPM_P2
2022/10/14 04:30:28;;;;;;;;;1.00;1.00;;;;;15.92;88.15;100936.53;5067298;27;45521;-72
2022/10/14 04:32:53;;;;;;;;;2.00;2.00;;;;;15.84;87.95;100923.53;5049825;28;46147;-72
2022/10/14 04:35:18;;;;;;;;;1.75;1.75;;;;;15.91;88.26;100937.53;5054638;28;45385;-71
2022/10/14 04:37:44;;;;;;;;;1.75;1.75;;;;;15.79;87.70;100922.97;5035720;28;45340;-70
2022/10/14 04:40:09;;;;;;;;;2.00;2.00;;;;;15.86;88.31;100929.72;5053869;27;45403;-70
2022/10/14 04:42:35;;;;;;;;;1.75;1.00;;;;;15.94;88.01;100942.72;5094720;27;46498;-72
2022/10/14 04:45:00;;;;;;;;;1.00;1.00;;;;;15.86;87.98;100933.28;5095316;27;45348;-71
2022/10/14 04:47:26;;;;;;;;;1.00;1.00;;;;;15.92;87.75;100936.53;5096070;27;45315;-71
2022/10/14 04:49:51;;;;;;;;;1.00;1.00;;;;;15.92;87.38;100923.91;5095044;27;45486;-72
2022/10/14 04:52:16;;;;;;;;;0.75;0.75;;;;;15.85;87.35;100903.63;5093463;27;46367;-71
2022/10/14 04:54:43;;;;;;;;;0.50;0.50;;;;;15.87;87.39;100909.81;5094858;27;45488;-71
2022/10/14 04:57:08;;;;;;;;;1.25;1.25;;;;;15.86;87.12;100916.19;5095552;27;45270;-72
2022/10/14 04:59:34;;;;;;;;;0.75;0.75;;;;;15.88;87.33;100915.13;5094745;27;45500;-71
2022/10/14 05:01:59;;;;;;;;;0.25;0.25;;;;;15.91;87.85;100927.56;5094948;27;46085;-72
2022/10/14 05:04:25;;;;;;;;;1.50;1.50;;;;;15.88;87.43;100920.53;5094976;27;45614;-72
2022/10/14 05:06:50;;;;;;;;;2.00;0.00;;;;;15.94;87.01;100921.97;5097706;27;45722;-70
2022/10/14 05:09:16;;;;;;;;;1.00;1.00;;;;;15.93;86.81;100922.94;5095080;27;45532;-72
2022/10/14 05:11:41;;;;;;;;;1.75;1.75;;;;;15.83;87.07;100906.44;5095517;27;45839;-75
2022/10/14 05:14:08;;;;;;;;;1.00;1.00;;;;;15.92;86.99;100923.91;5095531;27;45413;-76
2022/10/14 05:16:33;;;;;;;;;0.00;0.00;;;;;15.88;86.96;100925.94;5095538;27;45276;-74
2022/10/14 05:18:59;;;;;;;;;1.00;1.00;;;;;15.92;87.03;100925.72;5094971;27;45515;-73
2022/10/14 05:21:24;;;;;;;;;1.00;1.00;;;;;15.89;87.10;100932.22;5094867;27;46100;-74
2022/10/14 05:23:50;;;;;;;;;2.25;0.75;;;;;15.81;87.15;100911.09;5094521;27;45279;-74
2022/10/14 05:26:15;;;;;;;;;2.00;1.00;;;;;15.77;87.45;100900.56;5094996;27;45401;-73
2022/10/14 05:28:41;;;;;;;;;1.25;1.25;;;;;15.81;87.00;100903.00;5094632;27;45494;-76
2022/10/14 05:31:06;;;;;;;;;1.25;1.25;;;;;15.84;86.81;100907.31;5094825;27;45417;-78
2022/10/14 05:33:32;;;;;;;;;0.50;0.50;;;;;15.82;86.51;100893.88;5095567;27;45427;-77
2022/10/14 05:35:58;;;;;;;;;1.00;1.00;;;;;15.94;86.63;100915.69;5095043;27;45539;-77
2022/10/14 05:38:23;;;;;;;;;1.00;1.00;;;;;15.86;87.40;100895.44;5094781;27;45462;-78
2022/10/14 05:40:54;;;;;;;;;2.50;2.50;;;;;15.95;86.96;100903.91;5094791;27;45474;-73
2022/10/14 05:43:19;;;;;;;;;3.00;3.00;;;;;15.92;87.41;100914.91;5094749;27;45445;-74
2022/10/14 05:45:45;;;;;;;;;1.25;1.25;;;;;15.86;87.99;100913.50;5095466;27;45353;-74
2022/10/14 05:48:10;;;;;;;;;2.50;2.50;;;;;15.85;88.16;100909.91;5100118;27;45516;-73
2022/10/14 05:50:35;;;;;;;;;3.50;3.50;;;;;15.86;88.08;100918.91;5094567;27;46103;-74
2022/10/14 05:53:01;;;;;;;;;3.50;2.75;;;;;15.85;88.33;100922.56;5093893;27;45260;-74
2022/10/14 05:55:26;;;;;;;;;3.25;3.00;;;;;15.86;88.10;100916.19;5094637;27;45157;-73
2022/10/14 05:57:54;;;;;;;;;3.00;3.00;;;;;15.90;88.05;100912.34;5094066;27;45290;-70
2022/10/14 06:00:20;;;;;;;;;4.75;4.50;;;;;15.91;88.20;100918.63;5094442;27;45524;-73
2022/10/14 06:02:45;;;;;;;;;3.50;3.50;;;;;15.87;88.48;100923.34;5094008;27;45497;-72
2022/10/14 06:05:10;;;;;;;;;4.00;4.00;;;;;15.84;88.34;100921.69;5093012;27;45546;-73
2022/10/14 06:07:36;;;;;;;;;4.00;4.00;;;;;15.83;88.31;100916.38;5093601;27;45523;-73
2022/10/14 06:10:02;;;;;;;;;3.00;3.00;;;;;15.89;88.35;100926.81;5094399;27;45287;-73
2022/10/14 06:12:27;;;;;;;;;4.50;4.00;;;;;15.75;87.95;100895.25;5093990;27;45527;-74
2022/10/14 06:14:53;;;;;;;;;2.50;2.50;;;;;15.83;88.23;100903.72;5094206;27;45365;-73
2022/10/14 06:17:18;;;;;;;;;4.00;4.00;;;;;15.72;87.92;100878.38;5094193;27;45394;-81
2022/10/14 06:19:44;;;;;;;;;3.50;3.50;;;;;15.98;87.60;100917.25;5098305;27;45673;-73
2022/10/14 06:22:09;;;;;;;;;5.00;5.00;;;;;15.98;87.56;100914.53;5097167;27;45477;-73
2022/10/14 06:24:34;;;;;;;;;4.00;4.00;;;;;16.00;87.49;100921.56;5095769;27;45376;-72
2022/10/14 06:27:00;;;;;;;;;4.75;4.00;;;;;15.93;87.19;100912.13;5097197;27;45504;-72
2022/10/14 06:29:30;;;;;;;;;6.50;4.00;;;;;15.96;87.42;100908.34;5097371;27;46185;-78
2022/10/14 06:31:55;;;;;;;;;5.00;5.00;;;;;15.99;86.69;100911.69;5097087;27;45697;-73
2022/10/14 06:34:22;;;;;;;;;5.00;4.00;;;;;15.97;86.64;100918.22;5097437;27;45370;-75
2022/10/14 06:36:48;;;;;;;;;3.50;3.50;;;;;16.03;86.91;100924.06;5096779;27;45406;-75
2022/10/14 06:39:13;;;;;;;;;2.00;2.00;;;;;16.00;86.45;100924.25;5097113;27;46783;-75
2022/10/14 06:41:39;;;;;;;;;3.00;3.00;;;;;16.05;85.74;100921.28;5096956;27;45434;-72
2022/10/14 06:44:04;;;;;;;;;4.00;4.00;;;;;16.01;86.24;100915.19;5097492;27;45386;-73
2022/10/14 06:46:29;;;;;;;;;2.00;2.00;;;;;16.00;85.73;100909.88;5100977;27;45539;-75
2022/10/14 06:48:55;;;;;;;;;3.75;3.75;;;;;15.95;85.61;100909.31;5097045;27;46171;-74
2022/10/14 06:51:20;;;;;;;;;3.00;3.00;;;;;15.91;85.63;100919.44;5097134;27;45359;-73
2022/10/14 06:53:45;;;;;;;;;3.25;3.25;;;;;15.96;86.01;100928.16;5097373;27;45807;-74
2022/10/14 06:56:11;;;;;;;;;3.00;2.00;;;;;15.94;86.02;100926.50;5097215;27;45481;-73
2022/10/14 06:58:36;;;;;;;;;3.00;3.00;;;;;15.93;85.67;100931.03;5094877;27;46455;-73
2022/10/14 07:01:03;;;;;;;;;3.00;3.00;;;;;15.88;85.44;100938.59;5095317;27;45520;-70
2022/10/14 07:03:30;;;;;;;;;1.75;1.75;;;;;15.89;85.03;100934.94;5095973;27;45513;-71
2022/10/14 07:05:55;;;;;;;;;2.00;2.00;;;;;15.91;85.26;100935.69;5105146;27;47454;-70
2022/10/14 07:08:20;;;;;;;;;2.25;2.25;;;;;15.91;84.25;100946.50;5100786;27;45897;-70
2022/10/14 07:10:46;;;;;;;;;3.50;2.25;;;;;15.86;84.57;100948.63;5078333;27;45571;-69
2022/10/14 07:13:12;;;;;;;;;1.00;1.00;;;;;15.85;84.70;100947.75;5108265;27;45350;-72
2022/10/14 07:15:38;;;;;;;;;1.00;1.00;;;;;15.78;84.44;100923.94;5095828;27;45607;-70
2022/10/14 07:18:04;;;;;;;;;3.25;3.25;;;;;15.97;84.56;100956.06;5095117;27;46052;-70
2022/10/14 07:20:30;;;;;;;;;2.00;2.00;;;;;15.95;84.25;100953.44;5111705;27;45384;-72
2022/10/14 07:22:55;;;;;;;;;3.00;3.00;;;;;15.85;84.54;100941.50;5095999;27;45489;-70
2022/10/14 07:25:21;;;;;;;;;2.00;2.00;;;;;15.92;84.91;100948.22;5096125;27;45474;-72
2022/10/14 07:27:46;;;;;;;;;2.50;2.50;;;;;15.95;85.03;100958.00;5096201;27;46219;-72
2022/10/14 07:30:12;;;;;;;;;4.00;2.25;;;;;16.00;84.46;100963.97;5096182;27;45462;-72
2022/10/14 07:32:37;;;;;;;;;3.75;1.75;;;;;15.91;84.25;100962.72;5097062;27;45296;-71
2022/10/14 07:35:03;;;;;;;;;2.00;2.00;;;;;15.69;85.05;100941.63;5096860;27;45350;-73
2022/10/14 07:37:28;;;;;;;;;1.75;1.75;;;;;15.81;84.67;100980.53;5095309;27;45324;-71
2022/10/14 07:39:54;;;;;;;;;3.00;2.50;;;;;15.64;85.22;100959.97;5095737;27;45458;-70
2022/10/14 07:42:19;;;;;;;;;5.25;3.75;;;;;15.77;85.58;100989.78;5095931;27;45282;-72
2022/10/14 07:44:44;;;;;;;;;2.25;2.25;;;;;15.67;85.18;100969.69;5096058;27;45517;-71
2022/10/14 07:47:10;;;;;;;;;4.00;2.00;;;;;15.61;84.86;100970.09;5096697;27;45965;-72
2022/10/14 07:49:35;;;;;;;;;0.75;0.75;;;;;15.73;84.58;100981.00;5093737;27;45377;-72
2022/10/14 07:52:01;;;;;;;;;1.75;1.75;;;;;15.65;84.59;100968.94;5095379;27;45445;-71
2022/10/14 07:54:28;;;;;;;;;1.00;1.00;;;;;15.66;83.81;100971.53;5094669;27;45802;-71
2022/10/14 07:56:54;;;;;;;;;1.00;1.00;;;;;15.63;84.09;100978.97;5095070;27;46070;-71
2022/10/14 07:59:20;;;;;;;;;3.00;1.00;;;;;15.46;83.70;100959.25;5094775;27;45390;-77
2022/10/14 08:01:50;;;;;;;;;1.50;1.50;;;;;15.57;83.72;100974.81;5099732;27;45339;-78
2022/10/14 08:04:15;;;;;;;;;1.25;1.25;;;;;15.64;83.35;100981.59;5098607;27;45534;-79
2022/10/14 08:06:41;;;;;;;;;2.00;1.00;;;;;15.59;83.17;100974.72;5104179;27;46496;-80
2022/10/14 08:09:09;;;;;;;;;2.00;2.00;;;;;15.52;82.58;100968.81;5098430;27;45385;-79
2022/10/14 08:11:35;;;;;;;;;3.00;2.75;;;;;15.72;82.33;101000.91;5094903;27;45290;-79
2022/10/14 08:14:00;;;;;;;;;2.00;2.00;;;;;15.62;81.79;100971.84;5095359;27;45366;-78
2022/10/14 08:16:33;;;;;;;;;2.00;2.00;;;;;15.73;81.86;100997.22;5095713;27;45496;-79
2022/10/14 08:19:01;;;;;;;;;1.50;1.50;;;;;15.76;81.65;101001.56;5095626;27;45301;-78
2022/10/14 08:21:27;;;;;;;;;2.50;2.00;;;;;15.77;81.83;100984.38;5095956;27;45437;-78
2022/10/14 08:23:56;;;;;;;;;1.00;1.00;;;;;15.89;81.13;101000.69;5102338;27;45535;-80
2022/10/14 08:26:31;;;;;;;;;2.00;2.00;;;;;15.93;81.51;101000.47;5096449;27;46372;-78
2022/10/14 08:29:00;;;;;;;;;1.00;1.00;;;;;15.88;80.82;101000.78;5097002;27;45409;-79
2022/10/14 08:31:26;;;;;;;;;2.00;2.00;;;;;15.90;80.65;101015.09;5095255;27;45392;-80
2022/10/14 08:33:52;;;;;;;;;2.00;2.00;;;;;15.84;81.07;100991.13;5096283;27;45422;-80
2022/10/14 08:36:19;;;;;;;;;1.00;1.00;;;;;15.68;81.05;100969.59;5098743;27;45954;-78
2022/10/14 08:38:44;;;;;;;;;2.25;2.25;;;;;15.95;81.22;101009.38;5096435;27;45390;-78
2022/10/14 08:41:23;;;;;;;;;2.00;2.00;;;;;15.91;81.02;101003.28;5095508;27;45509;-77
2022/10/14 08:44:01;;;;;;;;;4.00;2.50;;;;;15.79;81.00;100986.03;5078038;27;45565;-79
2022/10/14 08:46:35;;;;;;;;;0.00;0.00;;;;;15.77;80.71;100990.66;5101260;27;45420;-78
2022/10/14 08:49:24;;;;;;;;;2.00;2.00;;;;;15.85;81.28;101001.84;5099029;27;45390;-78
2022/10/14 08:52:04;;;;;;;;;2.25;1.75;;;;;15.85;81.85;100992.84;5078431;27;45423;-78
2022/10/14 08:54:37;;;;;;;;;3.00;1.75;;;;;15.93;81.96;100997.78;5081713;27;45399;-79
2022/10/14 08:57:04;;;;;;;;;3.00;3.00;;;;;16.01;81.31;101001.72;5100688;27;45571;-81
2022/10/14 08:59:36;;;;;;;;;3.00;3.00;;;;;16.01;81.27;100996.31;5099598;27;45301;-79
2022/10/14 09:02:14;;;;;;;;;2.00;2.00;;;;;15.96;81.28;100998.47;5100145;27;45516;-79
2022/10/14 09:04:40;;;;;;;;;1.00;1.00;;;;;15.98;81.37;101001.06;5099511;27;45469;-78
2022/10/14 09:07:05;;;;;;;;;1.75;1.50;;;;;15.73;81.56;100963.94;5088298;27;45295;-79
2022/10/14 09:09:42;;;;;;;;;1.50;1.50;;;;;15.91;81.22;100999.72;5097177;27;45461;-79
2022/10/14 09:12:14;;;;;;;;;2.00;2.00;;;;;15.92;81.41;100999.59;5095793;27;45333;-78
2022/10/14 09:14:58;;;;;;;;;5.00;2.00;;;;;15.87;81.34;100978.28;5096467;27;45331;-77
2022/10/14 09:17:28;;;;;;;;;1.00;1.00;;;;;15.79;81.83;100968.94;5095675;27;45484;-78
2022/10/14 09:20:12;;;;;;;;;1.50;1.50;;;;;15.92;81.56;100972.56;5098259;27;45425;-78
2022/10/14 09:22:37;;;;;;;;;3.75;2.25;;;;;15.70;81.92;100934.38;5097776;27;45094;-78
2022/10/14 09:25:11;;;;;;;;;1.75;1.75;;;;;16.01;81.79;100973.81;5100845;27;45346;-81
2022/10/14 09:27:36;;;;;;;;;2.00;2.00;;;;;15.69;82.34;100914.59;5094829;27;46474;-78
2022/10/14 09:30:09;;;;;;;;;2.50;2.50;;;;;16.05;82.39;100976.22;5095486;27;45351;-80
2022/10/14 09:32:47;;;;;;;;;5.50;3.00;;;;;16.06;82.73;100967.16;5094544;27;45479;-78
2022/10/14 09:35:16;;;;;;;;;3.00;2.00;;;;;16.18;82.17;100973.56;5097390;27;45516;-81
2022/10/14 09:37:41;;;;;;;;;2.25;2.25;;;;;16.21;81.55;100986.91;5096879;27;47915;-78
2022/10/14 09:40:19;;;;;;;;;3.25;3.25;;;;;16.15;81.19;100981.91;5094546;27;45522;-80
2022/10/14 09:43:09;;;;;;;;;5.00;3.00;;;;;16.17;81.80;100974.53;5094731;27;45326;-79
2022/10/14 09:46:00;;;;;;;;;2.00;1.00;;;;;16.21;81.94;100966.16;5095236;27;45369;-79
2022/10/14 09:48:43;;;;;;;;;2.50;2.50;;;;;16.27;81.83;100965.72;5076902;27;46326;-79
2022/10/14 09:51:18;;;;;;;;;2.00;2.00;;;;;16.30;81.63;100969.22;5097778;27;45318;-75
2022/10/14 09:53:48;;;;;;;;;2.75;2.75;;;;;16.18;80.94;100976.28;5095264;27;45402;-76
2022/10/14 09:56:14;;;;;;;;;2.00;2.00;;;;;16.20;80.99;100977.94;5096946;27;45563;-77
2022/10/14 09:58:55;;;;;;;;;3.75;3.75;;;;;16.17;81.80;100971.84;5098348;27;45457;-75
2022/10/14 10:01:24;;;;;;;;;2.00;2.00;;;;;16.17;81.71;100967.28;5099485;27;45571;-75
2022/10/14 10:03:51;;;;;;;;;2.50;2.50;;;;;16.07;81.63;100949.09;5098616;27;45606;-77
2022/10/14 10:06:20;;;;;;;;;2.00;2.00;;;;;16.19;81.59;100968.06;5096083;27;47682;-78
2022/10/14 10:08:51;;;;;;;;;4.75;3.00;;;;;16.25;81.44;100972.19;5098769;27;46533;-77
2022/10/14 10:11:32;;;;;;;;;2.00;2.00;;;;;16.23;81.11;100968.75;5098033;27;45401;-74
2022/10/14 10:13:57;;;;;;;;;4.00;4.00;;;;;16.14;82.07;100970.22;5097251;27;45694;-78
2022/10/14 10:16:26;;;;;;;;;3.00;3.00;;;;;16.23;81.60;100966.06;5098262;27;45333;-73
2022/10/14 10:18:54;;;;;;;;;2.00;2.00;;;;;16.20;81.31;100960.84;5078612;27;47424;-76
2022/10/14 10:21:29;;;;;;;;;3.00;3.00;;;;;16.22;81.71;100958.91;5094196;27;45579;-75
2022/10/14 10:23:54;;;;;;;;;2.75;2.75;;;;;16.28;80.96;100963.91;5096403;27;45430;-75
2022/10/14 10:26:28;;;;;;;;;2.00;2.00;;;;;16.20;81.41;100950.00;5096891;27;45398;-77
2022/10/14 10:28:58;;;;;;;;;4.25;3.00;;;;;16.33;80.64;100958.19;5097711;27;45544;-76
2022/10/14 10:31:47;;;;;;;;;4.00;4.00;;;;;16.40;81.06;100946.00;5077505;27;45430;-74
2022/10/14 10:34:49;;;;;;;;;2.00;2.00;;;;;16.41;79.47;100947.72;5095618;27;45401;-74
2022/10/14 10:37:21;;;;;;;;;2.75;2.75;;;;;16.52;80.22;100955.97;5096785;27;45379;-73
2022/10/14 10:39:58;;;;;;;;;2.25;2.00;;;;;16.56;78.50;100958.41;5095234;27;48385;-75
2022/10/14 10:42:38;;;;;;;;;3.25;3.25;;;;;16.40;79.18;100914.38;5096711;27;45212;-79
2022/10/14 10:45:21;;;;;;;;;2.00;2.00;;;;;16.60;76.39;100940.97;5096708;27;45315;-81
2022/10/14 10:47:50;;;;;;;;;1.00;1.00;;;;;16.61;76.17;100942.72;5096340;27;46458;-80
2022/10/14 10:50:15;;;;;;;;;1.00;1.00;;;;;16.55;76.41;100939.53;5094331;27;45426;-80
2022/10/14 10:53:00;;;;;;;;;2.75;2.00;;;;;16.53;77.20;100931.53;5096311;27;45547;-77
2022/10/14 10:55:25;;;;;;;;;1.75;1.75;;;;;16.60;77.54;100929.25;5076966;27;45411;-76
2022/10/14 10:58:04;;;;;;;;;4.50;1.50;;;;;16.50;78.22;100882.16;5105249;27;45434;-75
2022/10/14 11:00:42;;;;;;;;;1.00;1.00;;;;;16.70;76.74;100895.22;5097096;27;45558;-75
2022/10/14 11:03:27;;;;;;;;;1.75;1.75;;;;;16.84;76.70;100914.06;5095025;27;45945;-77
2022/10/14 11:06:10;;;;;;;;;2.00;2.00;;;;;16.78;77.40;100900.09;5107844;27;47231;-73
2022/10/14 11:14:46;;;;;;;;;2.00;2.00;;;;;16.59;79.07;100908.56;5096103;27;45400;-74
2022/10/14 11:17:39;;;;;;;;;4.00;4.00;;;;;16.50;79.88;100896.53;5096764;27;45641;-73
2022/10/14 11:20:22;;;;;;;;;2.00;2.00;;;;;16.58;80.11;100899.63;5077816;27;45457;-74
2022/10/14 11:23:30;;;;;;;;;2.75;2.75;;;;;16.62;79.62;100890.31;5094483;27;46108;-73
2022/10/14 11:26:10;;;;;;;;;2.75;2.75;;;;;16.62;80.27;100878.63;5094418;27;45406;-73
2022/10/14 11:29:03;;;;;;;;;3.00;3.00;;;;;16.53;80.43;100861.16;5096076;27;45345;-73
2022/10/14 11:31:50;;;;;;;;;4.00;2.75;;;;;16.60;78.89;100856.16;5094684;27;45945;-74
2022/10/14 11:34:47;;;;;;;;;3.50;3.50;;;;;16.59;80.03;100870.69;5095987;27;45457;-73
2022/10/14 11:37:19;;;;;;;;;2.00;2.00;;;;;16.61;79.79;100866.06;5041322;27;45286;-72
2022/10/14 11:39:53;;;;;;;;;3.25;2.00;;;;;16.66;79.62;100861.22;5095916;27;45623;-77
2022/10/14 11:42:33;;;;;;;;;3.50;3.50;;;;;16.66;79.09;100866.63;5095559;27;45310;-73
2022/10/14 11:45:26;;;;;;;;;2.00;2.00;;;;;16.65;77.99;100854.06;5095761;27;45393;-74
2022/10/14 11:47:58;;;;;;;;;1.00;1.00;;;;;16.51;78.27;100827.91;5093368;27;45506;-72
2022/10/14 11:50:35;;;;;;;;;2.00;2.00;;;;;16.59;78.94;100832.78;5095959;27;45417;-73
2022/10/14 11:53:19;;;;;;;;;2.00;2.00;;;;;16.62;79.03;100824.50;5108069;27;45418;-73
2022/10/14 11:55:54;;;;;;;;;2.00;2.00;;;;;16.73;78.89;100840.00;5094358;27;46336;-72
2022/10/14 11:58:25;;;;;;;;;2.00;2.00;;;;;16.66;79.00;100826.03;5095159;27;45450;-72
2022/10/14 12:00:55;;;;;;;;;1.75;1.75;;;;;16.65;78.69;100810.75;5096046;27;45508;-72
2022/10/14 12:03:42;;;;;;;;;2.25;2.25;;;;;16.70;78.50;100823.97;5095098;27;45410;-71
2022/10/14 12:06:28;;;;;;;;;1.00;1.00;;;;;16.71;78.90;100813.03;5099120;27;46561;-72
2022/10/14 12:09:21;;;;;;;;;3.00;1.00;;;;;16.67;78.99;100795.28;5095710;27;45469;-72
2022/10/14 12:11:56;;;;;;;;;1.00;1.00;;;;;16.62;79.37;100794.72;5095252;27;45563;-72
2022/10/14 12:14:54;;;;;;;;;1.00;1.00;;;;;16.58;79.64;100801.31;5095466;27;45468;-71
2022/10/14 12:17:22;;;;;;;;;1.00;1.00;;;;;16.57;80.28;100794.16;5093761;27;46098;-72
2022/10/14 12:19:50;;;;;;;;;4.00;2.00;;;;;16.55;80.61;100783.44;5093287;27;45455;-74
2022/10/14 12:22:26;;;;;;;;;1.50;1.50;;;;;16.54;79.90;100789.81;5090524;27;45548;-73
2022/10/14 12:24:54;;;;;;;;;1.75;1.75;;;;;16.50;80.88;100780.16;5095409;27;45330;-71
2022/10/14 12:27:23;;;;;;;;;0.25;0.25;;;;;16.52;81.39;100777.34;5094634;27;45502;-73
2022/10/14 12:29:51;;;;;;;;;3.00;2.00;;;;;16.54;81.71;100778.97;5094852;27;45502;-72
2022/10/14 12:32:19;;;;;;;;;1.00;1.00;;;;;16.58;81.96;100761.56;5094740;27;45404;-70
2022/10/14 12:34:52;;;;;;;;;1.25;1.25;;;;;16.56;81.80;100749.13;5095140;27;45485;-72
2022/10/14 12:37:26;;;;;;;;;2.00;2.00;;;;;16.69;81.60;100752.69;5094516;27;46790;-72
2022/10/14 12:40:00;;;;;;;;;3.00;3.00;;;;;16.73;81.63;100735.28;5094609;27;45441;-73
2022/10/14 12:42:26;;;;;;;;;1.00;1.00;;;;;16.79;81.08;100737.53;5095624;27;45321;-72
2022/10/14 12:44:55;;;;;;;;;1.75;1.75;;;;;16.84;81.80;100731.81;5095256;27;45488;-73
2022/10/14 12:47:20;;;;;;;;;1.00;1.00;;;;;16.86;81.54;100730.69;5094958;27;46437;-72
2022/10/14 12:49:57;;;;;;;;;3.25;2.25;;;;;16.81;81.12;100704.94;5094160;27;45694;-73
2022/10/14 12:52:28;;;;;;;;;2.75;2.75;;;;;16.91;81.64;100715.00;5103060;27;45433;-73
2022/10/14 12:54:54;;;;;;;;;3.25;3.25;;;;;16.92;81.57;100705.91;5094746;27;45426;-72
2022/10/14 12:57:29;;;;;;;;;2.75;2.00;;;;;16.97;81.19;100703.72;5076541;27;48345;-72
2022/10/14 12:59:58;;;;;;;;;2.00;2.00;;;;;16.95;80.94;100697.53;5094867;27;45472;-74
2022/10/14 13:02:43;;;;;;;;;3.25;3.25;;;;;17.01;81.35;100697.09;5094693;27;45456;-73
2022/10/14 13:05:39;;;;;;;;;3.00;3.00;;;;;17.02;81.64;100687.13;5099863;27;45405;-73
2022/10/14 13:08:21;;;;;;;;;6.25;4.75;;;;;17.01;81.33;100680.84;5094502;27;45963;-72
2022/10/14 13:10:58;;;;;;;;;3.50;3.50;;;;;17.01;81.11;100677.28;5094856;27;45385;-73
2022/10/14 13:13:50;;;;;;;;;2.75;2.50;;;;;17.01;81.33;100674.56;5095778;27;45457;-72
2022/10/14 13:16:24;;;;;;;;;3.00;3.00;;;;;16.97;81.72;100671.22;5095574;27;45498;-73
2022/10/14 13:19:03;;;;;;;;;3.00;3.00;;;;;16.90;81.94;100667.22;5095221;27;45373;-72
2022/10/14 13:21:37;;;;;;;;;3.00;3.00;;;;;16.92;82.57;100665.28;5090881;27;45510;-72
2022/10/14 13:24:12;;;;;;;;;5.00;4.00;;;;;16.91;82.61;100652.72;5095327;27;45619;-74
2022/10/14 13:26:49;;;;;;;;;3.00;3.00;;;;;16.90;82.72;100651.00;5095614;27;45319;-72
2022/10/14 13:29:30;;;;;;;;;3.00;1.25;;;;;16.83;82.58;100635.31;5099006;27;46294;-73
2022/10/14 13:32:11;;;;;;;;;3.00;3.00;;;;;16.86;83.14;100637.78;5080193;27;45234;-73
2022/10/14 13:34:57;;;;;;;;;3.25;3.25;;;;;16.87;83.41;100625.97;5098118;27;45539;-73
2022/10/14 13:37:42;;;;;;;;;3.00;3.00;;;;;16.85;83.54;100614.38;5097389;27;45550;-73
2022/10/14 13:40:30;;;;;;;;;3.00;3.00;;;;;16.91;83.76;100619.34;5097701;27;46217;-74
2022/10/14 13:42:58;;;;;;;;;4.00;4.00;;;;;16.83;84.17;100600.09;5097961;27;45264;-73
2022/10/14 13:45:34;;;;;;;;;2.25;2.25;;;;;16.90;84.88;100613.06;5097958;27;45447;-73
2022/10/14 13:48:00;;;;;;;;;4.75;4.00;;;;;16.91;84.40;100609.38;5079841;27;46628;-75
2022/10/14 13:50:35;;;;;;;;;5.50;5.50;;;;;16.89;84.48;100605.94;5085789;27;45498;-80
2022/10/14 13:53:04;;;;;;;;;5.50;5.50;;;;;16.91;84.19;100606.69;5100762;27;46783;-74
2022/10/14 13:55:29;;;;;;;;;4.00;4.00;;;;;16.85;84.62;100595.41;5097911;27;45504;-75
2022/10/14 13:58:14;;;;;;;;;3.75;3.75;;;;;16.86;84.48;100591.75;5097445;27;45464;-74
2022/10/14 14:01:03;;;;;;;;;7.00;5.00;;;;;16.74;84.78;100576.41;5097543;27;46304;-73
2022/10/14 14:03:40;;;;;;;;;4.00;4.00;;;;;16.83;85.10;100581.16;5097618;27;45386;-73
2022/10/14 14:06:12;;;;;;;;;5.00;5.00;;;;;16.84;85.23;100575.59;5099150;27;45416;-72
2022/10/14 14:08:52;;;;;;;;;5.00;5.00;;;;;16.80;85.12;100568.69;5096788;27;45347;-73
2022/10/14 14:11:24;;;;;;;;;3.00;3.00;;;;;16.89;85.53;100575.28;5097892;27;46387;-74
2022/10/14 14:14:07;;;;;;;;;4.25;4.25;;;;;16.74;86.00;100552.91;5097649;27;45280;-74
2022/10/14 14:16:38;;;;;;;;;3.25;3.25;;;;;16.86;85.99;100579.06;5097618;27;45759;-74
2022/10/14 14:19:04;;;;;;;;;4.00;4.00;;;;;16.83;86.17;100565.78;5097397;27;45296;-74
2022/10/14 14:21:31;;;;;;;;;3.00;3.00;;;;;16.78;86.24;100551.69;5092652;27;45373;-74
2022/10/14 14:23:59;;;;;;;;;4.00;4.00;;;;;16.83;86.23;100559.50;5096872;27;45488;-73
2022/10/14 14:26:36;;;;;;;;;6.00;3.25;;;;;16.79;86.38;100537.19;5078704;27;45414;-73
2022/10/14 14:29:13;;;;;;;;;4.25;4.25;;;;;16.78;86.39;100524.63;5096942;27;45411;-74
2022/10/14 14:31:38;;;;;;;;;2.00;2.00;;;;;16.87;86.54;100540.19;5096813;27;46012;-74
2022/10/14 14:34:04;;;;;;;;;2.75;2.75;;;;;16.86;86.79;100529.47;5096282;27;45399;-73
2022/10/14 14:36:29;;;;;;;;;3.00;3.00;;;;;16.85;86.92;100525.03;5084425;27;45308;-73
2022/10/14 14:39:00;;;;;;;;;2.75;2.75;;;;;16.90;87.09;100526.41;5095129;27;45469;-74
2022/10/14 14:41:28;;;;;;;;;5.00;3.00;;;;;16.89;87.14;100527.41;5096063;27;46052;-73
2022/10/14 14:44:01;;;;;;;;;5.75;4.50;;;;;16.86;87.16;100511.38;5097276;27;45417;-74
2022/10/14 14:46:32;;;;;;;;;3.75;3.75;;;;;16.92;87.34;100508.22;5096438;27;45335;-73
2022/10/14 14:48:59;;;;;;;;;4.00;4.00;;;;;17.00;87.52;100507.63;5096766;27;45388;-73
2022/10/14 14:51:32;;;;;;;;;4.00;4.00;;;;;16.99;87.40;100493.22;5107831;27;45535;-72
2022/10/14 14:53:58;;;;;;;;;3.00;3.00;;;;;17.08;87.51;100486.25;5096553;27;45398;-72
2022/10/14 14:56:27;;;;;;;;;2.25;2.25;;;;;17.09;87.44;100487.09;5096275;27;45358;-73
2022/10/14 14:58:57;;;;;;;;;3.25;3.25;;;;;17.10;87.33;100489.66;5096775;27;45425;-74
2022/10/14 15:01:28;;;;;;;;;3.00;3.00;;;;;17.18;87.76;100498.06;5096488;27;45402;-73
2022/10/14 15:04:02;;;;;;;;;5.00;4.00;;;;;17.15;88.04;100486.63;5099925;27;45416;-73
2022/10/14 15:06:27;;;;;;;;;6.50;5.50;;;;;17.10;88.23;100468.00;5083289;27;45447;-73
2022/10/14 15:08:57;;;;;;;;;3.00;3.00;;;;;17.21;88.16;100476.16;5095381;27;45318;-73
2022/10/14 15:11:23;;;;;;;;;4.00;4.00;;;;;17.07;87.59;100449.31;5095017;27;48317;-72
2022/10/14 15:13:53;;;;;;;;;2.75;2.75;;;;;17.32;88.04;100483.47;5078210;27;45473;-72
2022/10/14 15:16:43;;;;;;;;;6.00;4.25;;;;;17.30;88.33;100474.59;5097087;27;45448;-72
2022/10/14 15:19:26;;;;;;;;;4.50;3.00;;;;;17.21;88.36;100445.50;5096850;27;45411;-72
2022/10/14 15:22:08;;;;;;;;;6.75;5.00;;;;;17.42;88.46;100470.94;5100282;27;45785;-72
2022/10/14 15:24:33;;;;;;;;;4.00;4.00;;;;;17.50;88.25;100465.78;5095226;27;45435;-73
2022/10/14 15:26:59;;;;;;;;;5.00;5.00;;;;;17.56;88.16;100446.31;5096258;27;45349;-72
2022/10/14 15:29:24;;;;;;;;;11.25;5.25;;;;;17.62;87.70;100448.56;5095924;27;45465;-73
2022/10/14 15:32:02;;;;;;;;;3.50;3.50;;;;;17.75;87.26;100459.28;5094827;27;46024;-73
2022/10/14 15:34:27;;;;;;;;;6.00;6.00;;;;;17.67;86.94;100426.50;5096188;27;45469;-77
2022/10/14 15:36:53;;;;;;;;;5.25;5.25;;;;;17.83;86.92;100453.25;5097657;27;45382;-77
2022/10/14 15:39:19;;;;;;;;;5.75;5.75;;;;;17.81;86.95;100449.78;5082120;27;45382;-75
2022/10/14 15:41:46;;;;;;;;;7.00;7.00;;;;;17.81;87.04;100445.22;5095472;27;45537;-75
2022/10/14 15:44:11;;;;;;;;;6.00;4.50;;;;;17.86;86.88;100448.44;5096315;27;45366;-76
2022/10/14 15:49:27;;;;;;;;;6.25;6.25;;;;;17.81;87.33;100436.22;5092661;27;45453;-71
2022/10/14 15:51:53;;;;;;;;;6.25;6.25;;;;;17.85;87.51;100440.44;5090792;27;47404;-72
2022/10/14 15:54:18;;;;;;;;;7.25;7.25;;;;;17.84;87.53;100441.41;5094800;27;45498;-71
2022/10/14 15:56:45;;;;;;;;;6.00;6.00;;;;;17.88;87.92;100441.03;5095811;27;45358;-72
2022/10/14 15:59:10;;;;;;;;;6.50;5.25;;;;;17.87;88.10;100442.00;5092800;27;45386;-74
2022/10/14 16:01:38;;;;;;;;;5.50;5.50;;;;;17.89;89.35;100450.03;5092938;27;46482;-72
2022/10/14 16:04:14;;;;;;;;;6.00;4.75;;;;;17.79;89.61;100422.78;5088545;27;45512;-73
2022/10/14 16:06:39;;;;;;;;;6.50;5.75;;;;;17.77;90.11;100414.81;5094350;27;45378;-76
2022/10/14 16:09:04;;;;;;;;;5.00;5.00;;;;;17.77;90.71;100420.22;5093925;27;45990;-77
2022/10/14 16:11:30;;;;;;;;;4.25;4.25;;;;;17.82;91.33;100430.69;5094784;27;46099;-78
2022/10/14 16:13:55;;;;;;;;;5.00;4.00;;;;;17.85;91.41;100425.03;5094632;27;45307;-77
2022/10/14 16:16:27;;;;;;;;;6.00;5.25;;;;;17.84;92.27;100420.59;5096280;27;45492;-75
2022/10/14 16:18:53;;;;;;;;;4.00;4.00;;;;;17.84;92.42;100425.16;5097855;27;45358;-77
2022/10/14 16:21:18;;;;;;;;;3.00;3.00;;;;;17.84;92.99;100425.16;5103570;27;46147;-79